Time;durP1;ratioP1;P1;durP2;ratioP2;P2;SDS_P1;SDS_P2;PMS_P1;PMS_P2;Temp;Humidity;BMP_temperature;BMP_pressure;BME280_temperature;BME280_humidity;BME280_pressure;Samples;Min_cycle;Max_cycle;Signal;HPM_P1;HPM_P2
2023/11/25 00:04:07;;;;;;;4.6;2.7;;;;;;;1.71;82.54;;;;;
2023/11/25 00:14:08;;;;;;;4.6;2.7;;;;;;;1.8;83.03;;;;;
2023/11/25 00:25:08;;;;;;;4.6;2.7;;;;;;;1.86;83.42;;;;;
2023/11/25 00:35:07;;;;;;;5.2;2.8;;;;;;;1.7;82.65;;;;;
2023/11/25 00:46:07;;;;;;;5.2;2.8;;;;;;;1.69;83.6;;;;;
2023/11/25 00:56:07;;;;;;;5.2;2.8;;;;;;;1.53;83.2;;;;;
2023/11/25 01:07:07;;;;;;;3.2;1.6;;;;;;;1.5;84.2;;;;;
2023/11/25 01:17:08;;;;;;;3.2;1.6;;;;;;;1.32;84.49;;;;;
2023/11/25 01:28:07;;;;;;;3.2;1.6;;;;;;;1.07;84.57;;;;;
2023/11/25 01:38:08;;;;;;;5.5;2.4;;;;;;;1;85.18;;;;;
2023/11/25 01:49:08;;;;;;;5.5;2.4;;;;;;;1.01;85.96;;;;;
2023/11/25 01:59:07;;;;;;;5.5;2.4;;;;;;;1.08;85.9;;;;;
2023/11/25 02:09:08;;;;;;;4.9;2.5;;;;;;;1.16;86.36;;;;;
2023/11/25 02:20:08;;;;;;;4.9;2.5;;;;;;;1.04;86.15;;;;;
2023/11/25 02:30:08;;;;;;;4;2;;;;;;;0.85;86.11;;;;;
2023/11/25 02:40:09;;;;;;;4;2;;;;;;;0.89;86.56;;;;;
2023/11/25 02:51:07;;;;;;;4;2;;;;;;;1.13;86.42;;;;;
2023/11/25 03:01:11;;;;;;;4.2;1.6;;;;;;;1.36;86.18;;;;;
2023/11/25 03:12:07;;;;;;;4.2;1.6;;;;;;;1.54;86.13;;;;;
2023/11/25 03:22:07;;;;;;;4.2;1.6;;;;;;;1.67;86.22;;;;;
2023/11/25 03:33:07;;;;;;;2.8;1.7;;;;;;;1.65;84.93;;;;;
2023/11/25 03:43:08;;;;;;;2.8;1.7;;;;;;;1.75;85.23;;;;;
2023/11/25 03:54:08;;;;;;;2.8;1.7;;;;;;;1.78;84.59;;;;;
2023/11/25 04:04:08;;;;;;;5.5;2.6;;;;;;;1.8;84.25;;;;;
2023/11/25 04:14:07;;;;;;;5.5;2.6;;;;;;;2;84.39;;;;;
2023/11/25 04:25:08;;;;;;;5.5;2.6;;;;;;;1.95;83.75;;;;;
2023/11/25 04:36:07;;;;;;;5.6;2.4;;;;;;;1.84;85.46;;;;;
2023/11/25 04:47:07;;;;;;;5.6;2.4;;;;;;;1.72;86.95;;;;;
2023/11/25 04:57:07;;;;;;;5.6;2.4;;;;;;;1.62;87.1;;;;;
2023/11/25 05:08:07;;;;;;;3.5;2;;;;;;;1.59;87.28;;;;;
2023/11/25 05:18:07;;;;;;;3.5;2;;;;;;;1.47;87.09;;;;;
2023/11/25 05:29:07;;;;;;;5.8;3.2;;;;;;;1.56;87.26;;;;;
2023/11/25 05:39:12;;;;;;;5.8;3.2;;;;;;;1.59;87.84;;;;;
2023/11/25 05:49:08;;;;;;;5.8;3.2;;;;;;;1.7;88.38;;;;;
2023/11/25 05:59:08;;;;;;;7.2;3.5;;;;;;;1.27;88.73;;;;;
2023/11/25 06:10:09;;;;;;;7.2;3.5;;;;;;;1.08;88.87;;;;;
2023/11/25 06:20:08;;;;;;;7.2;3.5;;;;;;;1.1;87.9;;;;;
2023/11/25 06:31:07;;;;;;;5.1;2.9;;;;;;;1.16;86.88;;;;;
2023/11/25 06:41:07;;;;;;;5.1;2.9;;;;;;;1.2;86.59;;;;;
2023/11/25 06:52:08;;;;;;;5.1;2.9;;;;;;;1.34;85.91;;;;;
2023/11/25 07:02:07;;;;;;;4.6;2.1;;;;;;;1.33;84.37;;;;;
2023/11/25 07:13:07;;;;;;;4.6;2.1;;;;;;;1.39;84.44;;;;;
2023/11/25 07:24:08;;;;;;;4.6;2.1;;;;;;;1.33;80.58;;;;;
2023/11/25 07:35:07;;;;;;;3.5;2.1;;;;;;;1.24;79.86;;;;;
2023/11/25 07:45:09;;;;;;;3.5;2.1;;;;;;;1.27;78.11;;;;;
2023/11/25 07:56:07;;;;;;;3.5;2.1;;;;;;;1.32;78.92;;;;;
2023/11/25 08:06:07;;;;;;;2.1;1.3;;;;;;;1.23;76.87;;;;;
2023/11/25 08:16:07;;;;;;;2.1;1.3;;;;;;;1.29;79.62;;;;;
2023/11/25 08:26:07;;;;;;;2.1;1.3;;;;;;;1.27;78.72;;;;;
2023/11/25 08:37:08;;;;;;;3.3;1.7;;;;;;;1.61;80.67;;;;;
2023/11/25 08:47:07;;;;;;;3.3;1.7;;;;;;;1.7;79.65;;;;;
2023/11/25 08:58:08;;;;;;;3.3;1.7;;;;;;;1.68;81.95;;;;;
2023/11/25 09:08:09;;;;;;;6.7;3.2;;;;;;;1.56;80.84;;;;;
2023/11/25 09:19:08;;;;;;;6.7;3.2;;;;;;;1.99;81.58;;;;;
2023/11/25 09:30:11;;;;;;;8.2;3.5;;;;;;;1.81;79.74;;;;;
2023/11/25 09:40:14;;;;;;;8.2;3.5;;;;;;;1.79;78.18;;;;;
2023/11/25 09:51:08;;;;;;;8.2;3.5;;;;;;;1.94;79.79;;;;;
2023/11/25 10:02:09;;;;;;;7.3;3.6;;;;;;;2.02;76.96;;;;;
2023/11/25 10:12:07;;;;;;;7.3;3.6;;;;;;;2.02;76.35;;;;;
2023/11/25 10:23:08;;;;;;;7.3;3.6;;;;;;;2.14;74.83;;;;;
2023/11/25 10:34:10;;;;;;;8.2;3.4;;;;;;;2.21;75.24;;;;;
2023/11/25 10:45:07;;;;;;;8.2;3.4;;;;;;;2.6;76.02;;;;;
2023/11/25 10:55:08;;;;;;;8.2;3.4;;;;;;;2.76;73.91;;;;;
2023/11/25 11:05:08;;;;;;;5.1;2.8;;;;;;;2.32;73.07;;;;;
2023/11/25 11:16:07;;;;;;;5.1;2.8;;;;;;;2.21;72.41;;;;;
2023/11/25 11:26:07;;;;;;;5.1;2.8;;;;;;;2.23;74.13;;;;;
2023/11/25 11:36:07;;;;;;;5.3;3.5;;;;;;;2.03;75.14;;;;;
2023/11/25 11:46:08;;;;;;;5.3;3.5;;;;;;;2.29;75.83;;;;;
2023/11/25 11:57:13;;;;;;;5.3;3.5;;;;;;;2.22;73.94;;;;;
2023/11/25 12:07:07;;;;;;;5.4;3;;;;;;;2.4;75.55;;;;;
2023/11/25 12:18:09;;;;;;;5.4;3;;;;;;;2.06;78.57;;;;;
2023/11/25 12:29:08;;;;;;;6.6;4;;;;;;;1.77;81.33;;;;;
2023/11/25 12:40:07;;;;;;;6.6;4;;;;;;;1.98;79.38;;;;;
2023/11/25 12:50:11;;;;;;;6.6;4;;;;;;;2.08;78.49;;;;;
2023/11/25 13:01:09;;;;;;;7;4.1;;;;;;;2.51;78.31;;;;;
2023/11/25 13:12:08;;;;;;;7;4.1;;;;;;;2.21;78.23;;;;;
2023/11/25 13:22:07;;;;;;;7;4.1;;;;;;;1.88;74.9;;;;;
2023/11/25 13:33:08;;;;;;;7.3;3.6;;;;;;;1.39;79.78;;;;;
2023/11/25 13:43:09;;;;;;;7.3;3.6;;;;;;;1.13;80.44;;;;;
2023/11/25 13:53:08;;;;;;;7.3;3.6;;;;;;;0.88;80.87;;;;;
2023/11/25 14:04:09;;;;;;;8.2;5;;;;;;;0.88;81.25;;;;;
2023/11/25 14:14:07;;;;;;;8.2;5;;;;;;;1.06;79.4;;;;;
2023/11/25 14:25:08;;;;;;;8.2;5;;;;;;;1.13;80.14;;;;;
2023/11/25 14:35:08;;;;;;;9.4;5.2;;;;;;;1.04;81.06;;;;;
2023/11/25 14:46:07;;;;;;;9.4;5.2;;;;;;;0.92;81.72;;;;;
2023/11/25 14:56:07;;;;;;;9.4;5.2;;;;;;;0.85;81.64;;;;;
2023/11/25 15:06:09;;;;;;;10;5.5;;;;;;;0.73;82.55;;;;;
2023/11/25 15:17:09;;;;;;;10;5.5;;;;;;;0.63;83.07;;;;;
2023/11/25 15:28:07;;;;;;;6.7;4.5;;;;;;;0.65;82.79;;;;;
2023/11/25 15:39:08;;;;;;;6.7;4.5;;;;;;;0.51;82.69;;;;;
2023/11/25 15:50:08;;;;;;;6.7;4.5;;;;;;;0.58;83.84;;;;;
2023/11/25 16:00:13;;;;;;;14.5;7.5;;;;;;;0.65;84.09;;;;;
2023/11/25 16:10:09;;;;;;;14.5;7.5;;;;;;;0.73;83.81;;;;;
2023/11/25 16:21:07;;;;;;;14.5;7.5;;;;;;;0.69;83.9;;;;;
2023/11/25 16:31:07;;;;;;;13.2;6.7;;;;;;;0.81;84.21;;;;;
2023/11/25 16:41:07;;;;;;;13.2;6.7;;;;;;;0.87;83.95;;;;;
2023/11/25 16:52:08;;;;;;;13.2;6.7;;;;;;;0.76;84.06;;;;;
2023/11/25 17:02:07;;;;;;;11.9;7;;;;;;;0.79;83.83;;;;;
2023/11/25 17:13:09;;;;;;;11.9;7;;;;;;;0.51;84.16;;;;;
2023/11/25 17:24:08;;;;;;;11.9;7;;;;;;;0.33;84.84;;;;;
2023/11/25 17:35:08;;;;;;;11.9;5.8;;;;;;;0.16;85.09;;;;;
2023/11/25 17:45:08;;;;;;;11.9;5.8;;;;;;;0.1;85.04;;;;;
2023/11/25 17:56:08;;;;;;;11.9;5.8;;;;;;;-0.14;85.43;;;;;
2023/11/25 18:06:08;;;;;;;11.5;6.3;;;;;;;-0.11;85.72;;;;;
2023/11/25 18:17:08;;;;;;;11.5;6.3;;;;;;;-0.28;85.69;;;;;
2023/11/25 18:28:08;;;;;;;13.7;7.7;;;;;;;-0.34;85.91;;;;;
2023/11/25 18:39:09;;;;;;;13.7;7.7;;;;;;;-0.22;86.28;;;;;
2023/11/25 18:50:08;;;;;;;13.7;7.7;;;;;;;-0.02;86.21;;;;;
2023/11/25 19:01:09;;;;;;;15.6;7.4;;;;;;;0.12;85.67;;;;;
2023/11/25 19:11:08;;;;;;;15.6;7.4;;;;;;;0.22;85.1;;;;;
2023/11/25 19:22:08;;;;;;;15.6;7.4;;;;;;;0.34;84.56;;;;;
2023/11/25 19:32:08;;;;;;;13.1;6.9;;;;;;;0.52;84.26;;;;;
2023/11/25 19:43:08;;;;;;;13.1;6.9;;;;;;;0.53;83.62;;;;;
2023/11/25 19:54:08;;;;;;;13.1;6.9;;;;;;;0.56;83.92;;;;;
2023/11/25 20:05:08;;;;;;;15.8;7.4;;;;;;;0.57;83.89;;;;;
2023/11/25 20:15:08;;;;;;;15.8;7.4;;;;;;;0.4;83.97;;;;;
2023/11/25 20:26:08;;;;;;;15.8;7.4;;;;;;;0.35;84.49;;;;;
2023/11/25 20:36:08;;;;;;;13;7.9;;;;;;;0.34;84.98;;;;;
2023/11/25 20:47:09;;;;;;;13;7.9;;;;;;;0.39;85.05;;;;;
2023/11/25 20:57:10;;;;;;;16;10.1;;;;;;;0.37;84.93;;;;;
2023/11/25 21:08:11;;;;;;;16;10.1;;;;;;;0.44;84.96;;;;;
2023/11/25 21:19:08;;;;;;;16;10.1;;;;;;;0.47;84.86;;;;;
2023/11/25 21:29:08;;;;;;;14.3;7.8;;;;;;;0.59;84.6;;;;;
2023/11/25 21:40:10;;;;;;;14.3;7.8;;;;;;;0.52;84.56;;;;;
2023/11/25 21:51:08;;;;;;;14.3;7.8;;;;;;;0.65;84.59;;;;;
2023/11/25 22:02:08;;;;;;;17.5;9.5;;;;;;;0.69;84.38;;;;;
2023/11/25 22:12:08;;;;;;;17.5;9.5;;;;;;;0.79;84.38;;;;;
2023/11/25 22:22:08;;;;;;;17.5;9.5;;;;;;;0.77;84.63;;;;;
2023/11/25 22:33:08;;;;;;;17;10;;;;;;;0.77;84.3;;;;;
2023/11/25 22:43:08;;;;;;;17;10;;;;;;;0.83;84.65;;;;;
2023/11/25 22:54:09;;;;;;;17;10;;;;;;;0.8;84.58;;;;;
2023/11/25 23:04:08;;;;;;;17.1;8.4;;;;;;;0.74;84.51;;;;;
2023/11/25 23:14:08;;;;;;;17.1;8.4;;;;;;;0.8;84.67;;;;;
2023/11/25 23:25:09;;;;;;;17.1;8.4;;;;;;;0.75;84.3;;;;;
2023/11/25 23:36:09;;;;;;;14.5;7.9;;;;;;;0.76;84.17;;;;;
2023/11/25 23:46:08;;;;;;;14.5;7.9;;;;;;;0.79;83.88;;;;;
2023/11/25 23:57:08;;;;;;;13.9;7.5;;;;;;;0.81;83.91;;;;;
